Time;durP1;ratioP1;P1;durP2;ratioP2;P2;SDS_P1;SDS_P2;PMS_P1;PMS_P2;Temp;Humidity;BMP_temperature;BMP_pressure;BME280_temperature;BME280_humidity;BME280_pressure;Samples;Min_cycle;Max_cycle;Signal;HPM_P1;HPM_P2
2024/04/06 00:00:11;;;;;;;;;;;20.60;48.10;;;;;;1570642;74;1570;-69
2024/04/06 00:02:14;;;;;;;;;;;20.70;48.20;;;;;;1570281;74;1651;-68
2024/04/06 00:04:15;;;;;;;;;;;20.70;48.20;;;;;;1568562;74;694;-68
2024/04/06 00:06:17;;;;;;;;;;;20.70;48.20;;;;;;1575593;74;1670;-68
2024/04/06 00:08:19;;;;;;;;;;;20.70;48.30;;;;;;1570349;74;1146;-69
2024/04/06 00:10:21;;;;;;;;;;;20.80;48.30;;;;;;1573904;74;739;-70
2024/04/06 00:12:24;;;;;;;;;;;20.70;48.30;;;;;;1571877;74;1957;-69
2024/04/06 00:14:25;;;;;;;;;;;20.70;48.20;;;;;;1570522;74;1515;-68
2024/04/06 00:16:27;;;;;;;;;;;20.70;48.30;;;;;;1570714;75;1564;-70
2024/04/06 00:18:29;;;;;;;;;;;20.60;48.20;;;;;;1573138;74;1442;-68
2024/04/06 00:20:34;;;;;;;;;;;20.60;48.10;;;;;;1570094;75;1515;-68
2024/04/06 00:22:35;;;;;;;;;;;20.60;48.10;;;;;;1572418;74;1806;-69
2024/04/06 00:24:37;;;;;;;;;;;20.70;48.30;;;;;;1570467;74;580;-68
2024/04/06 00:26:38;;;;;;;;;;;20.60;48.20;;;;;;1578026;74;741;-69
2024/04/06 00:28:40;;;;;;;;;;;20.60;48.20;;;;;;1574035;74;1616;-70
2024/04/06 00:30:42;;;;;;;;;;;20.80;48.40;;;;;;1568990;75;1426;-68
2024/04/06 00:32:44;;;;;;;;;;;20.70;48.40;;;;;;1574242;74;1912;-70
2024/04/06 00:34:46;;;;;;;;;;;20.60;48.30;;;;;;1571736;74;1557;-69
2024/04/06 00:36:48;;;;;;;;;;;20.60;48.30;;;;;;1570952;75;1150;-67
2024/04/06 00:38:50;;;;;;;;;;;20.60;48.40;;;;;;1570518;75;793;-68
2024/04/06 00:40:51;;;;;;;;;;;20.60;48.40;;;;;;1570726;75;726;-69
2024/04/06 00:42:53;;;;;;;;;;;20.70;48.40;;;;;;1569409;74;1472;-69
2024/04/06 00:44:55;;;;;;;;;;;20.60;48.40;;;;;;1570874;75;1496;-69
2024/04/06 00:46:58;;;;;;;;;;;20.70;48.50;;;;;;1570527;74;1554;-68
2024/04/06 00:49:00;;;;;;;;;;;20.70;48.50;;;;;;1566304;74;1131;-69
2024/04/06 00:51:04;;;;;;;;;;;20.60;48.40;;;;;;1538374;76;1937;-68
2024/04/06 00:53:06;;;;;;;;;;;20.70;48.50;;;;;;1549337;75;1937;-69
2024/04/06 00:55:07;;;;;;;;;;;20.60;48.40;;;;;;1551204;75;1555;-67
2024/04/06 00:57:09;;;;;;;;;;;20.60;48.40;;;;;;1559608;75;1516;-68
2024/04/06 00:59:11;;;;;;;;;;;20.60;48.40;;;;;;1524989;76;1563;-68
2024/04/06 01:01:13;;;;;;;;;;;20.70;48.60;;;;;;1544388;76;1574;-68
2024/04/06 01:03:15;;;;;;;;;;;20.60;48.40;;;;;;1542871;76;646;-69
2024/04/06 01:05:17;;;;;;;;;;;20.70;48.60;;;;;;1568178;75;779;-68
2024/04/06 01:07:20;;;;;;;;;;;20.60;48.50;;;;;;1537519;76;1106;-68
2024/04/06 01:09:22;;;;;;;;;;;20.70;48.60;;;;;;1558574;75;1531;-69
2024/04/06 01:11:24;;;;;;;;;;;20.70;48.70;;;;;;1561733;75;2008;-69
2024/04/06 01:13:26;;;;;;;;;;;20.70;48.70;;;;;;1559817;75;1580;-68
2024/04/06 01:15:32;;;;;;;;;;;20.70;48.70;;;;;;1558823;75;1512;-70
2024/04/06 01:17:31;;;;;;;;;;;20.60;48.60;;;;;;1561862;74;1623;-70
2024/04/06 01:19:33;;;;;;;;;;;20.60;48.60;;;;;;1552669;75;788;-68
2024/04/06 01:21:35;;;;;;;;;;;20.70;48.80;;;;;;1550277;75;781;-68
2024/04/06 01:23:37;;;;;;;;;;;20.70;48.80;;;;;;1549830;75;1584;-68
2024/04/06 01:25:38;;;;;;;;;;;20.60;48.60;;;;;;1552128;75;1603;-69
2024/04/06 01:27:40;;;;;;;;;;;20.70;48.70;;;;;;1552955;75;1401;-70
2024/04/06 01:29:42;;;;;;;;;;;20.60;48.70;;;;;;1557130;75;1583;-67
2024/04/06 01:31:44;;;;;;;;;;;20.60;48.70;;;;;;1570981;75;1919;-69
2024/04/06 01:33:48;;;;;;;;;;;20.70;48.80;;;;;;1564852;75;604;-69
2024/04/06 01:35:50;;;;;;;;;;;20.60;48.60;;;;;;1556983;75;1926;-68
2024/04/06 01:37:51;;;;;;;;;;;20.60;48.60;;;;;;1562575;75;1582;-68
2024/04/06 01:39:53;;;;;;;;;;;20.60;48.70;;;;;;1574113;74;1777;-71
2024/04/06 01:41:55;;;;;;;;;;;20.70;48.90;;;;;;1571126;74;1568;-69
2024/04/06 01:43:57;;;;;;;;;;;20.60;48.70;;;;;;1571134;74;1553;-68
2024/04/06 01:45:59;;;;;;;;;;;20.70;48.80;;;;;;1570480;74;703;-68
2024/04/06 01:48:01;;;;;;;;;;;20.70;48.90;;;;;;1576615;74;1106;-69
2024/04/06 01:50:04;;;;;;;;;;;20.60;48.70;;;;;;1571016;75;674;-69
2024/04/06 01:52:06;;;;;;;;;;;20.60;48.80;;;;;;1570525;74;1965;-71
2024/04/06 01:54:08;;;;;;;;;;;20.60;48.80;;;;;;1574251;74;1562;-68
2024/04/06 01:56:10;;;;;;;;;;;20.70;48.90;;;;;;1571255;75;1317;-70
2024/04/06 01:58:11;;;;;;;;;;;20.70;48.90;;;;;;1571164;75;1567;-68
2024/04/06 02:00:14;;;;;;;;;;;20.80;48.90;;;;;;1576808;75;683;-70
2024/04/06 02:02:15;;;;;;;;;;;20.70;48.90;;;;;;1570752;75;621;-68
2024/04/06 02:04:17;;;;;;;;;;;20.60;48.80;;;;;;1567184;75;658;-70
2024/04/06 02:06:19;;;;;;;;;;;20.80;48.90;;;;;;1568943;74;1559;-72
2024/04/06 02:08:21;;;;;;;;;;;20.60;48.70;;;;;;1570844;74;1591;-69
2024/04/06 02:10:23;;;;;;;;;;;20.60;48.70;;;;;;1573856;74;1598;-69
2024/04/06 02:12:25;;;;;;;;;;;20.60;48.70;;;;;;1570666;75;1928;-70
2024/04/06 02:14:27;;;;;;;;;;;20.60;48.80;;;;;;1567025;75;659;-68
2024/04/06 02:16:28;;;;;;;;;;;20.80;48.90;;;;;;1571210;75;742;-68
2024/04/06 02:18:30;;;;;;;;;;;20.80;48.90;;;;;;1574250;74;1092;-70
2024/04/06 02:20:32;;;;;;;;;;;20.70;48.90;;;;;;1570467;74;1529;-71
2024/04/06 02:22:34;;;;;;;;;;;20.70;48.90;;;;;;1570318;74;1588;-69
2024/04/06 02:24:36;;;;;;;;;;;20.70;48.90;;;;;;1570856;75;1670;-67
2024/04/06 02:26:38;;;;;;;;;;;20.70;48.90;;;;;;1572010;74;1631;-67
2024/04/06 02:28:40;;;;;;;;;;;20.60;48.80;;;;;;1570454;74;1118;-67
2024/04/06 02:30:42;;;;;;;;;;;20.70;48.90;;;;;;1562326;75;721;-66
2024/04/06 02:32:44;;;;;;;;;;;20.60;48.80;;;;;;1567454;75;1902;-68
2024/04/06 02:34:46;;;;;;;;;;;20.60;48.80;;;;;;1552980;75;1586;-68
2024/04/06 02:36:47;;;;;;;;;;;20.60;48.80;;;;;;1563483;75;1583;-67
2024/04/06 02:38:49;;;;;;;;;;;20.70;48.90;;;;;;1558952;75;662;-69
2024/04/06 02:40:51;;;;;;;;;;;20.70;49.00;;;;;;1569433;74;1636;-68
2024/04/06 02:42:53;;;;;;;;;;;20.60;48.90;;;;;;1572260;74;741;-70
2024/04/06 02:44:56;;;;;;;;;;;20.70;49.00;;;;;;1573635;74;728;-68
2024/04/06 02:46:57;;;;;;;;;;;20.70;49.00;;;;;;1558692;75;1091;-68
2024/04/06 02:48:59;;;;;;;;;;;20.70;48.90;;;;;;1558084;75;1638;-67
2024/04/06 02:51:02;;;;;;;;;;;20.70;49.00;;;;;;1560235;75;1584;-67
2024/04/06 02:53:04;;;;;;;;;;;20.70;49.00;;;;;;1562043;75;1935;-68
2024/04/06 02:55:06;;;;;;;;;;;20.70;49.00;;;;;;1557705;75;1629;-67
2024/04/06 02:57:08;;;;;;;;;;;20.60;48.90;;;;;;1560867;75;1146;-67
2024/04/06 02:59:10;;;;;;;;;;;20.60;48.90;;;;;;1559273;75;692;-68
2024/04/06 03:01:13;;;;;;;;;;;20.70;49.00;;;;;;1564684;75;724;-68
2024/04/06 03:03:15;;;;;;;;;;;20.70;49.10;;;;;;1561631;75;1539;-68
2024/04/06 03:05:18;;;;;;;;;;;20.70;49.00;;;;;;1558648;75;1556;-68
2024/04/06 03:07:20;;;;;;;;;;;20.70;49.00;;;;;;1565889;75;1333;-67
2024/04/06 03:09:22;;;;;;;;;;;20.80;49.00;;;;;;1553926;76;1440;-68
2024/04/06 03:11:24;;;;;;;;;;;20.70;49.10;;;;;;1532846;76;807;-68
2024/04/06 03:13:25;;;;;;;;;;;20.80;49.10;;;;;;1558147;75;1970;-70
2024/04/06 03:15:27;;;;;;;;;;;20.70;49.10;;;;;;1561458;75;714;-69
2024/04/06 03:17:29;;;;;;;;;;;20.60;48.90;;;;;;1558801;75;1597;-68
2024/04/06 03:19:31;;;;;;;;;;;20.70;49.10;;;;;;1556912;75;1610;-67
2024/04/06 03:21:33;;;;;;;;;;;20.70;49.10;;;;;;1558864;75;1506;-68
2024/04/06 03:23:35;;;;;;;;;;;20.70;49.10;;;;;;1559237;75;1765;-67
2024/04/06 03:25:37;;;;;;;;;;;20.80;49.10;;;;;;1558461;75;695;-70
2024/04/06 03:27:39;;;;;;;;;;;20.60;49.00;;;;;;1560995;75;1192;-69
2024/04/06 03:29:41;;;;;;;;;;;20.70;49.10;;;;;;1560531;75;714;-68
2024/04/06 03:31:43;;;;;;;;;;;20.70;49.10;;;;;;1531958;76;1583;-68
2024/04/06 03:33:45;;;;;;;;;;;20.60;49.00;;;;;;1529347;76;1926;-68
2024/04/06 03:35:47;;;;;;;;;;;20.70;49.10;;;;;;1534833;76;1574;-68
2024/04/06 03:37:50;;;;;;;;;;;20.80;49.10;;;;;;1540524;76;1141;-68
2024/04/06 03:39:52;;;;;;;;;;;20.60;48.90;;;;;;1575355;74;625;-70
2024/04/06 03:41:54;;;;;;;;;;;20.70;49.10;;;;;;1569616;75;738;-69
2024/04/06 03:43:55;;;;;;;;;;;20.60;49.00;;;;;;1561758;75;1368;-68
2024/04/06 03:45:58;;;;;;;;;;;20.70;49.10;;;;;;1569011;75;1619;-68
2024/04/06 03:48:01;;;;;;;;;;;20.70;49.20;;;;;;1546070;76;1566;-69
2024/04/06 03:50:03;;;;;;;;;;;20.80;49.20;;;;;;1568407;74;1564;-68
2024/04/06 03:52:04;;;;;;;;;;;20.70;49.20;;;;;;1571117;74;1928;-68
2024/04/06 03:54:06;;;;;;;;;;;20.60;49.00;;;;;;1577649;74;698;-68
2024/04/06 03:56:08;;;;;;;;;;;20.60;49.00;;;;;;1573047;74;518;-67
2024/04/06 03:58:10;;;;;;;;;;;20.60;49.10;;;;;;1555308;75;1585;-67
2024/04/06 04:00:14;;;;;;;;;;;20.70;49.20;;;;;;1544788;76;1515;-67
2024/04/06 04:02:16;;;;;;;;;;;20.60;49.00;;;;;;1545796;75;1532;-68
2024/04/06 04:04:18;;;;;;;;;;;20.70;49.20;;;;;;1567465;75;1515;-68
2024/04/06 04:06:20;;;;;;;;;;;20.70;49.20;;;;;;1581035;75;742;-69
2024/04/06 04:08:22;;;;;;;;;;;20.70;49.20;;;;;;1561427;75;1131;-67
2024/04/06 04:10:23;;;;;;;;;;;20.70;49.20;;;;;;1561769;75;1003;-68
2024/04/06 04:12:25;;;;;;;;;;;20.60;49.10;;;;;;1561384;75;1938;-68
2024/04/06 04:14:27;;;;;;;;;;;20.60;49.10;;;;;;1561141;75;1550;-68
2024/04/06 04:16:29;;;;;;;;;;;20.70;49.20;;;;;;1560474;75;1563;-69
2024/04/06 04:18:31;;;;;;;;;;;20.70;49.20;;;;;;1558595;75;1584;-68
2024/04/06 04:20:33;;;;;;;;;;;20.60;49.10;;;;;;1560621;75;678;-70
2024/04/06 04:22:35;;;;;;;;;;;20.60;49.10;;;;;;1529980;76;660;-71
2024/04/06 04:24:36;;;;;;;;;;;20.70;49.20;;;;;;1523255;76;746;-68
2024/04/06 04:26:38;;;;;;;;;;;20.70;49.30;;;;;;1544958;75;1477;-67
2024/04/06 04:28:40;;;;;;;;;;;20.70;49.20;;;;;;1549113;76;1328;-68
2024/04/06 04:30:42;;;;;;;;;;;20.60;49.20;;;;;;1539447;76;1694;-67
2024/04/06 04:32:44;;;;;;;;;;;20.70;49.20;;;;;;1573119;75;1939;-68
2024/04/06 04:34:46;;;;;;;;;;;20.70;49.30;;;;;;1579567;75;782;-71
2024/04/06 04:36:48;;;;;;;;;;;20.70;49.30;;;;;;1570867;75;1152;-67
2024/04/06 04:38:50;;;;;;;;;;;20.60;49.20;;;;;;1570858;75;662;-67
2024/04/06 04:40:51;;;;;;;;;;;20.60;49.10;;;;;;1559263;75;1456;-70
2024/04/06 04:42:53;;;;;;;;;;;20.70;49.20;;;;;;1562524;75;1240;-67
2024/04/06 04:44:55;;;;;;;;;;;20.60;49.10;;;;;;1558777;75;1539;-66
2024/04/06 04:46:57;;;;;;;;;;;20.60;49.10;;;;;;1561835;75;1463;-67
2024/04/06 04:49:02;;;;;;;;;;;20.70;49.20;;;;;;1559053;75;635;-68
2024/04/06 04:51:04;;;;;;;;;;;20.70;49.20;;;;;;1561891;75;911;-67
2024/04/06 04:53:06;;;;;;;;;;;20.70;49.20;;;;;;1541433;76;1943;-67
2024/04/06 04:55:08;;;;;;;;;;;20.60;49.00;;;;;;1570641;74;1531;-67
2024/04/06 04:57:10;;;;;;;;;;;20.70;49.20;;;;;;1570396;74;1583;-65
2024/04/06 04:59:12;;;;;;;;;;;20.70;49.20;;;;;;1572232;74;1587;-67
2024/04/06 05:01:16;;;;;;;;;;;20.60;49.10;;;;;;1574424;74;1459;-69
2024/04/06 05:03:18;;;;;;;;;;;20.60;49.10;;;;;;1569748;74;650;-69
2024/04/06 05:05:19;;;;;;;;;;;20.60;49.10;;;;;;1571044;74;767;-67
2024/04/06 05:07:22;;;;;;;;;;;20.70;49.20;;;;;;1574531;74;1159;-66
2024/04/06 05:09:23;;;;;;;;;;;20.60;49.10;;;;;;1571690;75;1428;-67
2024/04/06 05:11:25;;;;;;;;;;;20.70;49.30;;;;;;1571771;75;1525;-66
2024/04/06 05:13:27;;;;;;;;;;;20.70;49.30;;;;;;1569107;74;1978;-67
2024/04/06 05:15:30;;;;;;;;;;;20.60;49.20;;;;;;1568790;75;1500;-67
2024/04/06 05:17:32;;;;;;;;;;;20.60;49.20;;;;;;1571166;74;1160;-67
2024/04/06 05:19:35;;;;;;;;;;;20.70;49.30;;;;;;1572006;74;679;-69
2024/04/06 05:21:37;;;;;;;;;;;20.60;49.20;;;;;;1571789;74;708;-67
2024/04/06 05:23:38;;;;;;;;;;;20.70;49.40;;;;;;1570494;74;1538;-70
2024/04/06 05:25:40;;;;;;;;;;;20.60;49.20;;;;;;1570300;74;1443;-68
2024/04/06 05:27:42;;;;;;;;;;;20.60;49.20;;;;;;1568798;74;1092;-66
2024/04/06 05:29:44;;;;;;;;;;;20.70;49.40;;;;;;1571507;75;1518;-68
2024/04/06 05:31:47;;;;;;;;;;;20.70;49.40;;;;;;1564354;75;612;-68
2024/04/06 05:33:49;;;;;;;;;;;20.70;49.40;;;;;;1573379;74;1905;-68
2024/04/06 05:35:51;;;;;;;;;;;20.60;49.30;;;;;;1570369;74;639;-67
2024/04/06 05:37:53;;;;;;;;;;;20.70;49.40;;;;;;1571409;74;1499;-69
2024/04/06 05:39:55;;;;;;;;;;;20.60;49.20;;;;;;1572835;74;1562;-67
2024/04/06 05:41:57;;;;;;;;;;;20.70;49.40;;;;;;1569887;74;1582;-69
2024/04/06 05:44:00;;;;;;;;;;;20.70;49.40;;;;;;1570990;74;1574;-70
2024/04/06 05:46:05;;;;;;;;;;;20.70;49.40;;;;;;1574030;74;671;-68
2024/04/06 05:48:07;;;;;;;;;;;20.60;49.30;;;;;;1573580;74;1152;-70
2024/04/06 05:50:09;;;;;;;;;;;20.70;49.50;;;;;;1569770;74;684;-70
2024/04/06 05:52:11;;;;;;;;;;;20.60;49.40;;;;;;1571185;74;1549;-67
2024/04/06 05:54:13;;;;;;;;;;;20.70;49.40;;;;;;1573353;74;1937;-66
2024/04/06 05:56:15;;;;;;;;;;;20.60;49.40;;;;;;1571981;74;1535;-67
2024/04/06 05:58:16;;;;;;;;;;;20.60;49.40;;;;;;1573250;74;1368;-67
2024/04/06 06:00:18;;;;;;;;;;;20.60;49.40;;;;;;1576436;74;644;-68
2024/04/06 06:02:20;;;;;;;;;;;20.70;49.50;;;;;;1573207;74;693;-69
2024/04/06 06:04:22;;;;;;;;;;;20.60;49.30;;;;;;1573014;74;681;-70
2024/04/06 06:06:24;;;;;;;;;;;20.70;49.50;;;;;;1569599;74;1653;-69
2024/04/06 06:08:26;;;;;;;;;;;20.80;49.50;;;;;;1570198;74;1344;-66
2024/04/06 06:10:28;;;;;;;;;;;20.70;49.60;;;;;;1570819;75;1576;-68
2024/04/06 06:12:30;;;;;;;;;;;20.70;49.60;;;;;;1571361;74;832;-67
2024/04/06 06:14:32;;;;;;;;;;;20.70;49.60;;;;;;1571898;74;1931;-68
2024/04/06 06:16:34;;;;;;;;;;;20.60;49.50;;;;;;1570690;75;627;-71
2024/04/06 06:18:35;;;;;;;;;;;20.70;49.70;;;;;;1572435;74;1588;-70
2024/04/06 06:20:38;;;;;;;;;;;20.70;49.70;;;;;;1574546;74;1704;-72
2024/04/06 06:22:40;;;;;;;;;;;20.60;49.70;;;;;;1569420;75;1514;-69
2024/04/06 06:24:42;;;;;;;;;;;20.70;49.80;;;;;;1570891;74;1569;-66
2024/04/06 06:26:44;;;;;;;;;;;20.60;50.00;;;;;;1571062;74;642;-68
2024/04/06 06:28:46;;;;;;;;;;;20.70;50.00;;;;;;1575144;74;1141;-68
2024/04/06 06:30:48;;;;;;;;;;;20.60;49.80;;;;;;1570633;74;688;-70
2024/04/06 06:32:50;;;;;;;;;;;20.70;50.00;;;;;;1575129;74;1619;-68
2024/04/06 06:34:52;;;;;;;;;;;20.70;50.00;;;;;;1571614;74;1914;-68
2024/04/06 06:36:54;;;;;;;;;;;20.70;50.00;;;;;;1570680;74;1581;-70
2024/04/06 06:38:56;;;;;;;;;;;20.70;50.00;;;;;;1569856;74;1449;-68
2024/04/06 06:40:58;;;;;;;;;;;20.70;50.00;;;;;;1571875;74;717;-71
2024/04/06 06:42:59;;;;;;;;;;;20.70;49.90;;;;;;1570072;74;784;-68
2024/04/06 06:45:05;;;;;;;;;;;20.70;49.20;;;;;;1555076;75;665;-68
2024/04/06 06:47:05;;;;;;;;;;;20.70;49.10;;;;;;1539856;76;1651;-66
2024/04/06 06:49:07;;;;;;;;;;;20.70;48.70;;;;;;1548069;76;1327;-68
2024/04/06 06:51:09;;;;;;;;;;;20.70;48.40;;;;;;1570407;74;1574;-66
2024/04/06 06:53:11;;;;;;;;;;;20.70;48.10;;;;;;1572136;75;1949;-66
2024/04/06 06:55:13;;;;;;;;;;;20.60;47.90;;;;;;1569832;75;819;-66
2024/04/06 06:57:14;;;;;;;;;;;20.60;47.30;;;;;;1557073;75;1126;-66
2024/04/06 06:59:16;;;;;;;;;;;20.60;47.30;;;;;;1572721;74;657;-67
2024/04/06 07:01:18;;;;;;;;;;;20.70;47.30;;;;;;1570790;74;1447;-67
2024/04/06 07:03:20;;;;;;;;;;;20.70;47.50;;;;;;1569562;75;1469;-69
2024/04/06 07:05:22;;;;;;;;;;;20.60;47.10;;;;;;1572012;74;1556;-69
2024/04/06 07:07:24;;;;;;;;;;;20.70;47.20;;;;;;1569798;74;1553;-67
2024/04/06 07:09:26;;;;;;;;;;;20.70;47.20;;;;;;1570317;74;673;-68
2024/04/06 07:11:28;;;;;;;;;;;20.70;46.50;;;;;;1572456;75;692;-67
2024/04/06 07:13:30;;;;;;;;;;;20.60;46.80;;;;;;1579154;74;1946;-68
2024/04/06 07:15:32;;;;;;;;;;;20.70;46.60;;;;;;1569992;74;1562;-70
2024/04/06 07:17:34;;;;;;;;;;;20.70;46.60;;;;;;1571410;74;1614;-67
2024/04/06 07:19:36;;;;;;;;;;;20.60;46.50;;;;;;1571565;74;1586;-69
2024/04/06 07:21:38;;;;;;;;;;;20.60;46.30;;;;;;1571396;74;1321;-71
2024/04/06 07:23:39;;;;;;;;;;;20.70;46.60;;;;;;1571197;74;666;-68
2024/04/06 07:25:42;;;;;;;;;;;20.70;46.40;;;;;;1572249;75;746;-71
2024/04/06 07:27:44;;;;;;;;;;;20.70;46.50;;;;;;1571702;74;1168;-70
2024/04/06 07:29:46;;;;;;;;;;;20.80;46.50;;;;;;1573361;74;1590;-70
2024/04/06 07:31:48;;;;;;;;;;;20.70;46.30;;;;;;1572548;74;1612;-68
2024/04/06 07:33:51;;;;;;;;;;;20.80;46.50;;;;;;1570721;74;1930;-68
2024/04/06 07:35:53;;;;;;;;;;;20.70;46.50;;;;;;1569699;73;1573;-70
2024/04/06 07:37:55;;;;;;;;;;;20.70;46.40;;;;;;1568713;75;1185;-69
2024/04/06 07:39:57;;;;;;;;;;;20.80;46.30;;;;;;1570734;75;783;-71
2024/04/06 07:41:59;;;;;;;;;;;20.70;46.50;;;;;;1569770;75;619;-70
2024/04/06 07:44:01;;;;;;;;;;;20.70;46.50;;;;;;1570140;75;1558;-69
2024/04/06 07:46:03;;;;;;;;;;;20.80;46.40;;;;;;1577571;74;1304;-70
2024/04/06 07:48:05;;;;;;;;;;;20.70;46.30;;;;;;1571412;74;1757;-70
2024/04/06 07:50:07;;;;;;;;;;;20.80;46.30;;;;;;1572891;75;1583;-69
2024/04/06 07:52:09;;;;;;;;;;;20.80;46.20;;;;;;1570942;75;669;-68
2024/04/06 07:54:11;;;;;;;;;;;20.80;46.20;;;;;;1574825;74;1942;-69
2024/04/06 07:56:14;;;;;;;;;;;20.80;46.20;;;;;;1570924;74;686;-67
2024/04/06 07:58:16;;;;;;;;;;;20.80;46.20;;;;;;1572410;75;1497;-67
2024/04/06 08:00:18;;;;;;;;;;;20.80;46.20;;;;;;1570004;74;1547;-66
2024/04/06 08:02:19;;;;;;;;;;;20.80;46.20;;;;;;1577382;74;662;-67
2024/04/06 08:04:21;;;;;;;;;;;20.80;46.30;;;;;;1571074;74;1537;-68
2024/04/06 08:06:23;;;;;;;;;;;20.80;46.30;;;;;;1571105;75;718;-68
2024/04/06 08:08:25;;;;;;;;;;;20.80;46.40;;;;;;1575776;74;1144;-70
2024/04/06 08:10:28;;;;;;;;;;;20.80;46.30;;;;;;1572852;74;713;-71
2024/04/06 08:12:30;;;;;;;;;;;20.80;46.30;;;;;;1572377;75;1589;-69
2024/04/06 08:14:32;;;;;;;;;;;20.80;46.30;;;;;;1575884;74;1940;-69
2024/04/06 08:16:35;;;;;;;;;;;20.90;46.50;;;;;;1572710;74;749;-69
2024/04/06 08:18:36;;;;;;;;;;;20.80;46.30;;;;;;1571920;74;1687;-67
2024/04/06 08:20:38;;;;;;;;;;;20.80;46.30;;;;;;1564683;75;720;-69
2024/04/06 08:22:40;;;;;;;;;;;20.90;46.40;;;;;;1571407;74;666;-70
2024/04/06 08:24:42;;;;;;;;;;;20.80;46.30;;;;;;1563941;75;690;-70
2024/04/06 08:26:45;;;;;;;;;;;20.80;46.30;;;;;;1546861;75;1571;-70
2024/04/06 08:28:49;;;;;;;;;;;20.90;46.40;;;;;;1558326;75;1487;-68
2024/04/06 08:30:51;;;;;;;;;;;20.90;46.50;;;;;;1551215;75;1602;-70
2024/04/06 08:32:55;;;;;;;;;;;20.90;46.50;;;;;;1565441;75;1540;-71
2024/04/06 08:35:00;;;;;;;;;;;20.90;46.50;;;;;;1556364;75;1939;-71
2024/04/06 08:37:02;;;;;;;;;;;20.90;46.60;;;;;;1572280;75;1170;-68
2024/04/06 08:39:04;;;;;;;;;;;20.90;46.60;;;;;;1570391;74;724;-66
2024/04/06 08:41:09;;;;;;;;;;;20.90;46.60;;;;;;1565469;75;1507;-68
2024/04/06 08:43:12;;;;;;;;;;;20.90;46.70;;;;;;1569035;75;1323;-68
2024/04/06 08:45:14;;;;;;;;;;;20.90;46.70;;;;;;1538893;76;1434;-69
2024/04/06 08:47:17;;;;;;;;;;;20.90;46.80;;;;;;1527855;76;1130;-69
2024/04/06 08:49:19;;;;;;;;;;;20.90;46.80;;;;;;1547230;76;950;-67
2024/04/06 08:51:23;;;;;;;;;;;20.90;46.80;;;;;;1543311;76;767;-69
2024/04/06 08:53:24;;;;;;;;;;;20.90;46.80;;;;;;1571504;75;1562;-70
2024/04/06 08:55:26;;;;;;;;;;;20.90;46.80;;;;;;1572952;75;1942;-68
2024/04/06 08:57:28;;;;;;;;;;;20.90;46.80;;;;;;1573546;74;1604;-67
2024/04/06 08:59:30;;;;;;;;;;;20.90;46.90;;;;;;1570200;74;1570;-69
2024/04/06 09:01:32;;;;;;;;;;;20.90;46.80;;;;;;1570158;75;689;-68
2024/04/06 09:03:34;;;;;;;;;;;20.90;46.80;;;;;;1569486;74;710;-67
2024/04/06 09:05:37;;;;;;;;;;;20.90;46.80;;;;;;1573717;74;641;-67
2024/04/06 09:07:39;;;;;;;;;;;20.90;46.80;;;;;;1569482;73;1887;-71
2024/04/06 09:09:41;;;;;;;;;;;20.90;46.80;;;;;;1570519;74;1492;-67
2024/04/06 09:11:44;;;;;;;;;;;20.90;46.80;;;;;;1567035;74;1599;-66
2024/04/06 09:13:45;;;;;;;;;;;20.90;46.80;;;;;;1569731;74;1552;-68
2024/04/06 09:15:47;;;;;;;;;;;21.00;46.80;;;;;;1574500;74;1950;-67
2024/04/06 09:17:49;;;;;;;;;;;21.00;46.80;;;;;;1573281;74;1165;-70
2024/04/06 09:19:51;;;;;;;;;;;20.90;46.90;;;;;;1569763;74;674;-70
2024/04/06 09:21:53;;;;;;;;;;;21.00;46.80;;;;;;1570508;74;1516;-71
2024/04/06 09:23:55;;;;;;;;;;;20.90;46.80;;;;;;1570665;74;1668;-68
2024/04/06 09:26:03;;;;;;;;;;;21.00;46.60;;;;;;1570537;75;1576;-70
2024/04/06 09:28:05;;;;;;;;;;;20.90;46.60;;;;;;1572860;75;1567;-72
2024/04/06 09:30:07;;;;;;;;;;;21.00;46.50;;;;;;1573513;74;736;-72
2024/04/06 09:32:14;;;;;;;;;;;20.90;46.30;;;;;;1570832;74;745;-71
2024/04/06 09:34:14;;;;;;;;;;;21.00;46.40;;;;;;1573794;73;1920;-68
2024/04/06 09:36:16;;;;;;;;;;;21.00;46.30;;;;;;1571559;75;1493;-68
2024/04/06 09:38:18;;;;;;;;;;;20.90;46.30;;;;;;1571311;75;1383;-67
2024/04/06 09:40:20;;;;;;;;;;;21.00;46.40;;;;;;1569021;74;1404;-68
2024/04/06 09:42:22;;;;;;;;;;;21.00;46.50;;;;;;1570359;74;1613;-70
2024/04/06 09:44:25;;;;;;;;;;;21.00;46.50;;;;;;1569858;74;824;-70
2024/04/06 09:46:27;;;;;;;;;;;21.00;46.30;;;;;;1569610;74;758;-69
2024/04/06 09:48:28;;;;;;;;;;;21.00;46.40;;;;;;1567539;74;1120;-69
2024/04/06 09:50:30;;;;;;;;;;;21.00;46.30;;;;;;1569003;74;1543;-72
2024/04/06 09:52:32;;;;;;;;;;;21.00;46.00;;;;;;1571694;74;1543;-69
2024/04/06 09:54:34;;;;;;;;;;;21.00;46.00;;;;;;1570694;75;1942;-68
2024/04/06 09:56:36;;;;;;;;;;;21.00;46.10;;;;;;1569440;75;1572;-68
2024/04/06 09:58:39;;;;;;;;;;;21.00;44.70;;;;;;1570501;74;1105;-69
2024/04/06 10:00:43;;;;;;;;;;;21.00;45.50;;;;;;1570665;74;1855;-68
2024/04/06 10:02:45;;;;;;;;;;;21.00;45.50;;;;;;1568870;75;1880;-69
2024/04/06 10:04:48;;;;;;;;;;;21.00;45.60;;;;;;1570485;74;1563;-67
2024/04/06 10:06:51;;;;;;;;;;;21.00;45.70;;;;;;1571357;74;1696;-68
2024/04/06 10:08:55;;;;;;;;;;;21.00;45.70;;;;;;1574428;74;683;-68
2024/04/06 10:10:57;;;;;;;;;;;21.00;45.80;;;;;;1569650;74;1891;-70
2024/04/06 10:12:59;;;;;;;;;;;21.00;45.40;;;;;;1564410;75;1193;-70
2024/04/06 10:15:02;;;;;;;;;;;21.00;44.90;;;;;;1560579;75;1966;-67
2024/04/06 10:17:09;;;;;;;;;;;21.00;45.30;;;;;;1563204;75;1148;-65
2024/04/06 10:19:11;;;;;;;;;;;20.90;45.30;;;;;;1559242;75;1835;-71
2024/04/06 10:21:14;;;;;;;;;;;21.00;45.40;;;;;;1558484;75;1583;-69
2024/04/06 10:23:16;;;;;;;;;;;20.90;45.20;;;;;;1558691;75;1578;-67
2024/04/06 10:25:18;;;;;;;;;;;21.00;45.50;;;;;;1557584;75;1575;-68
2024/04/06 10:27:23;;;;;;;;;;;21.00;45.50;;;;;;1566622;75;1145;-67
2024/04/06 10:29:25;;;;;;;;;;;21.00;45.70;;;;;;1564816;75;1914;-67
2024/04/06 10:31:27;;;;;;;;;;;21.00;45.60;;;;;;1558339;75;702;-67
2024/04/06 10:33:30;;;;;;;;;;;21.00;45.70;;;;;;1560770;75;1555;-68
2024/04/06 10:35:32;;;;;;;;;;;21.00;45.70;;;;;;1559412;75;1944;-71
2024/04/06 10:37:35;;;;;;;;;;;21.00;45.70;;;;;;1560011;75;1377;-68
2024/04/06 10:39:37;;;;;;;;;;;21.00;45.70;;;;;;1558508;75;1576;-69
2024/04/06 10:41:39;;;;;;;;;;;21.00;45.70;;;;;;1561614;75;672;-67
2024/04/06 10:43:42;;;;;;;;;;;21.00;45.60;;;;;;1556609;75;682;-70
2024/04/06 10:45:43;;;;;;;;;;;21.00;45.70;;;;;;1562095;75;728;-67
2024/04/06 10:47:45;;;;;;;;;;;21.00;45.70;;;;;;1556738;75;2106;-68
2024/04/06 10:49:49;;;;;;;;;;;21.00;45.70;;;;;;1558945;75;1645;-68
2024/04/06 10:51:51;;;;;;;;;;;21.00;45.60;;;;;;1561824;75;1726;-70
2024/04/06 10:53:55;;;;;;;;;;;21.00;45.50;;;;;;1560018;75;684;-68
2024/04/06 10:55:58;;;;;;;;;;;21.00;45.60;;;;;;1559166;75;1929;-70
2024/04/06 10:58:00;;;;;;;;;;;21.00;45.60;;;;;;1558476;75;1120;-69
2024/04/06 11:00:04;;;;;;;;;;;21.00;45.70;;;;;;1559748;75;1476;-69
2024/04/06 11:02:07;;;;;;;;;;;21.00;45.50;;;;;;1561109;75;1978;-67
2024/04/06 11:04:10;;;;;;;;;;;21.00;45.50;;;;;;1560427;75;1528;-68
2024/04/06 11:06:12;;;;;;;;;;;21.00;44.40;;;;;;1559180;75;1933;-70
2024/04/06 11:08:14;;;;;;;;;;;21.00;44.50;;;;;;1565150;75;1140;-68
2024/04/06 11:10:16;;;;;;;;;;;21.00;44.70;;;;;;1562042;75;753;-70
2024/04/06 11:12:18;;;;;;;;;;;21.00;44.90;;;;;;1563692;75;637;-69
2024/04/06 11:14:21;;;;;;;;;;;21.00;43.40;;;;;;1557209;75;1437;-67
2024/04/06 11:16:25;;;;;;;;;;;21.00;44.00;;;;;;1557725;75;1951;-69
2024/04/06 11:18:27;;;;;;;;;;;20.90;43.90;;;;;;1557394;75;1577;-69
2024/04/06 11:20:31;;;;;;;;;;;21.00;43.50;;;;;;1560500;75;1538;-69
2024/04/06 11:22:33;;;;;;;;;;;20.90;43.90;;;;;;1560476;75;640;-67
2024/04/06 11:24:34;;;;;;;;;;;20.90;43.10;;;;;;1559645;75;743;-68
2024/04/06 11:26:36;;;;;;;;;;;21.00;43.60;;;;;;1562871;75;895;-67
2024/04/06 11:28:39;;;;;;;;;;;21.00;42.50;;;;;;1560461;75;1580;-70
2024/04/06 11:30:41;;;;;;;;;;;21.00;42.90;;;;;;1559970;75;1365;-71
2024/04/06 11:32:45;;;;;;;;;;;21.00;43.20;;;;;;1561240;75;1340;-69
2024/04/06 11:34:47;;;;;;;;;;;20.90;42.90;;;;;;1558860;75;1950;-68
2024/04/06 11:36:49;;;;;;;;;;;21.00;43.10;;;;;;1557882;75;714;-70
2024/04/06 11:38:51;;;;;;;;;;;21.00;43.10;;;;;;1564806;75;814;-68
2024/04/06 11:40:53;;;;;;;;;;;21.00;42.90;;;;;;1558972;75;893;-69
2024/04/06 11:42:55;;;;;;;;;;;21.00;43.00;;;;;;1552299;75;1547;-68
2024/04/06 11:44:57;;;;;;;;;;;21.00;42.70;;;;;;1552767;75;1559;-68
2024/04/06 11:46:59;;;;;;;;;;;21.00;43.20;;;;;;1562057;75;1552;-69
2024/04/06 11:49:03;;;;;;;;;;;21.00;42.30;;;;;;1563592;75;1733;-68
2024/04/06 11:51:05;;;;;;;;;;;21.00;42.30;;;;;;1560486;75;720;-69
2024/04/06 11:53:09;;;;;;;;;;;21.00;42.40;;;;;;1562765;75;751;-70
2024/04/06 11:55:10;;;;;;;;;;;21.00;42.30;;;;;;1571194;73;1918;-70
2024/04/06 11:57:12;;;;;;;;;;;21.00;42.40;;;;;;1570864;74;1564;-69
2024/04/06 11:59:14;;;;;;;;;;;21.00;42.10;;;;;;1568694;74;1585;-70
2024/04/06 12:01:16;;;;;;;;;;;20.90;42.80;;;;;;1574427;74;1871;-69
2024/04/06 12:03:18;;;;;;;;;;;21.00;42.10;;;;;;1571079;74;1457;-68